NCAR-RAP Real-Time Weather Data

Output produced by METARs form (24 April 2018  22:57 UTC)
found at http://weather.rap.ucar.edu/surface/
 
RJAH 242200Z 18010KT 4000 SHRA BR FEW006 BKN008 BKN015 18/17 Q1004
RJAH 242138Z 18010KT 4000 SHRA BR FEW006 BKN008 BKN020 18/17 Q1004 RMK 1ST006 5ST008 5CU020 A2966 VIS SW-W 5KM 1ST006 SE
RJAH 242117Z 18010KT 4000 -SHRA BR FEW008 BKN020 OVC040 18/17 Q1004 RMK 1ST008 5CU020 8SC040 A2966 VIS S-SW 3000M
RJAH 242100Z 19009KT 4000 SHRA BR FEW008 BKN020 OVC030 18/17 Q1004
RJAH 242032Z 19010KT 4000 SHRA BR FEW008 BKN020 OVC030 18/17 Q1004 RMK 1ST008 5CU020 8CU030 A2966 VIS S-SW 3000M
RJAH 242006Z 18009KT 4000 -SHRA BR FEW008 OVC030 18/17 Q1004 RMK 1ST008 8CU030 A2966 VIS S-SW 3000M
RJAH 242000Z 18009KT 6000 -SHRA FEW008 OVC030 18/17 Q1004
RJAH 241942Z 18009KT 6000 -SHRA FEW008 BKN030 OVC050 18/17 Q1004 RMK 1ST008 6CU030 8CU050 A2966 VIS S-SW 5KM
RJAH 241921Z 18008KT 6000 FEW008 BKN030 OVC050 18/17 Q1004 RMK 1ST008 6CU030 8CU050 A2967 VIS S-SW 5KM
RJAH 241900Z 19008KT 6000 -SHRA FEW008 OVC020 18/17 Q1004
RJAH 241847Z 19008KT 5000 -SHRA BR FEW005 OVC020 18/17 Q1004 RMK 1ST005 8CU020 A2967 VIS S-SW 4000M
RJAH 241800Z 18008KT 4000 -SHRA BR FEW005 OVC020 18/17 Q1005
RJAH 241731Z 17008KT 5000 -SHRA BR FEW005 OVC030 18/17 Q1005 RMK 1ST005 8CU030 A2969 VIS S-SW 4000M
RJAH 241700Z 17008KT 4000 -SHRA BR FEW005 OVC030 17/17 Q1006
RJAH 241600Z 16005KT 3000 -SHRA BR FEW003 SCT005 OVC030 17/17 Q1007
RJAH 241551Z 16005KT 3000 -SHRA BR FEW003 SCT005 OVC030 17/17 Q1007 RMK 1ST003 3ST005 8CU030 A2974 VIS S-SW 2000M
RJAH 241523Z 17006KT 3000 SHRA BR FEW003 SCT005 OVC030 17/16 Q1007 RMK 1ST003 3ST005 8CU030 A2976 VIS S-SW 2000M
RJAH 241500Z 18005KT 3000 -SHRA BR FEW003 SCT005 OVC030 17/17 Q1008
RJAH 241425Z 19006KT 3000 SHRA BR FEW003 SCT005 OVC030 17/16 Q1008 RMK 1ST003 3ST005 8CU030 A2979 VIS S-SW 2000M
RJAH 241400Z 19006KT 4000 -SHRA BR FEW003 SCT005 BKN030 17/16 Q1009
RJAH 241300Z 20008KT 6000 -RA FEW008 OVC100 17/16 Q1010
RJAH 241200Z 19008KT 6000 -RA FEW015 OVC100 17/16 Q1010
RJAH 241100Z 18007KT 6000 -RA FEW015 OVC100 17/16 Q1010
RJAH 241000Z 16006KT 6000 -RA FEW015 BKN100 OVC140 17/16 Q1010
RJAH 240900Z 19005KT 6000 -RA FEW015 BKN100 OVC160 18/16 Q1010
RJAH 240824Z 20008KT 7000 -RA FEW030 BKN100 OVC180 18/15 Q1010 RMK 1SC030 7AC100 8AS180 A2982 VIS S-SW 5KM
RJAH 240800Z 20010KT 9999 -RA FEW030 BKN100 OVC180 19/14 Q1010
RJAH 240700Z 21012G22KT 190V250 9999 -SHRA FEW020 SCT035 BKN100 20/13 Q1010
RJAH 240609Z 22015KT 9999 -SHRA FEW020 BKN035 BKN120 21/13 Q1011 RMK 1CU020 5CU035 5AC120 A2985 MAX WIND 21KT
RJAH 240600Z 22013G25KT 9999 FEW020 BKN035 BKN230 21/13 Q1011
RJAH 240500Z 20015KT 9999 FEW020 BKN040 BKN230 22/13 Q1011
RJAH 240439Z 21010KT 8000 FEW020 BKN040 BKN080 20/15 Q1012 RMK 1SC020 5SC040 5AC080 A2989 MAX WIND 19KT
RJAH 240400Z 10005KT 040V140 7000 FEW015 BKN030 BKN070 18/14 Q1012
RJAH 240327Z 10008KT 7000 FEW015 BKN030 BKN050 18/14 Q1013 RMK 1SC015 6SC030 7SC050 A2992
RJAH 240300Z 09007KT 7000 FEW015 BKN025 BKN040 18/13 Q1013
RJAH 240216Z VRB02KT 7000 FEW015 BKN025 BKN040 18/13 Q1014 RMK 1SC015 5SC025 7SC040 A2995
RJAH 240200Z 06004KT 340V090 7000 FEW010 BKN015 BKN030 19/14 Q1014
RJAH 240136Z 01006KT 330V060 7000 FEW010 BKN015 BKN025 18/13 Q1015 RMK 2ST010 5SC015 7SC025 A2998 VIS W-N 6KM
RJAH 240100Z 12006KT 090V150 7000 FEW008 BKN010 BKN015 17/14 Q1016
RJAH 240052Z 12005KT 060V150 7000 FEW008 BKN010 BKN015 17/14 Q1016 RMK 1ST008 6ST010 7SC015 A3001 VIS W-N 5KM
RJAH 240000Z 08004KT 050V110 5000 BR SCT006 BKN008 OVC010 15/14 Q1016
RJAH 232317Z 09003KT 350V120 5000 BR FEW006 BKN008 OVC010 14/13 Q1017 RMK 2ST006 7ST008 8ST010 A3004 VIS W-N 4000M
RJAH 232300Z 06003KT 5000 -RA BR FEW006 BKN008 OVC010 14/13 Q1017
RJAH 232227Z 07005KT 040V100 6000 -RA FEW006 BKN008 OVC010 14/13 Q1017 RMK 1ST006 5ST008 8ST010 A3005 VIS S-SW 4000M FCST AMD 2207 TEMPO 2224 4000 -RA BR FEW006ST BKN008ST BECMG 0001 21008KT 6000 NSW FEW012SC BKN015SC BECMG 0102 SCT015SC BKN020SC TEMPO 02
RJAH 232200Z 09005KT 7000 -RA FEW008 BKN010 14/12 Q1017
RJAH 232148Z 10005KT 7000 -RA FEW008 BKN010 14/12 Q1017 RMK 2ST008 7ST010 A3005 VIS NW-N 5KM
RJAH 232100Z 08004KT 8000 FEW008 BKN010 14/12 Q1017
RJAH 232000Z 07003KT 8000 FEW008 BKN010 14/12 Q1017
RJAH 231900Z 08003KT 9999 FEW008 BKN010 14/11 Q1018
RJAH 231804Z 11004KT 9999 FEW008 BKN012 14/11 Q1018 RMK 2ST008 7SC012 A3007
RJAH 231800Z 12003KT 9999 FEW010 BKN015 14/11 Q1018
RJAH 231700Z 08003KT 9999 FEW010 BKN015 14/10 Q1018
RJAH 231600Z 08003KT 9999 FEW010 BKN015 14/10 Q1019
RJAH 231500Z 09004KT 9999 FEW010 SCT015 BKN020 14/10 Q1020
RJAH 231400Z 06004KT 9999 FEW010 SCT015 BKN025 14/10 Q1020
RJAH 231320Z 06006KT 9999 FEW010 SCT015 BKN030 14/10 Q1020 RMK 1ST010 3SC015 7SC030 A3014
RJAH 231300Z 06007KT 9999 FEW008 BKN012 BKN025 14/10 Q1020
RJAH 231200Z 04009KT 9999 FEW008 BKN012 14/10 Q1021
RJAH 231100Z 05011KT 9999 FEW008 BKN012 14/10 Q1021
RJAH 231012Z 06011KT 9999 FEW010 BKN012 14/10 Q1021 RMK 2ST010 7SC012 A3015
RJAH 231000Z 06012KT 9999 SCT010 BKN015 14/10 Q1020
RJAH 230900Z 06012KT 9999 FEW010 BKN015 BKN040 14/10 Q1020
RJAH 230800Z 06016KT 9999 FEW010 BKN025 BKN040 15/09 Q1020
RJAH 230700Z 07012KT 9999 FEW010 BKN030 BKN040 16/09 Q1020
RJAH 230600Z 06014KT 9999 FEW020 BKN030 BKN040 16/09 Q1020
RJAH 230500Z 07013KT 9999 FEW025 BKN040 18/09 Q1020
RJAH 230400Z 06015KT 030V090 9999 FEW020 SCT025 BKN040 18/09 Q1020
RJAH 230327Z 06014KT 030V090 9999 FEW020 SCT025 BKN040 18/09 Q1020 RMK 1SC020 3SC025 7SC040 A3015 MAX WIND 21KT
RJAH 230300Z 03013KT 9999 FEW020 BKN025 BKN040 19/10 Q1021
RJAH 230200Z 05015KT 8000 FEW020 BKN025 BKN040 17/09 Q1021
RJAH 230100Z 04014KT 8000 FEW015 BKN020 BKN030 16/09 Q1022
RJAH 230047Z 05014KT 8000 FEW015 BKN020 BKN030 16/09 Q1022 RMK 1SC015 6SC020 7SC030 A3019
RJAH 230000Z 04012KT 7000 FEW012 BKN015 BKN025 15/09 Q1022
RJAH 222300Z 05017KT 7000 FEW012 BKN015 BKN025 15/10 Q1021
RJAH 222200Z 03013KT 7000 FEW012 BKN015 BKN230 15/11 Q1021
RJAH 222113Z 04013KT 7000 FEW012 BKN015 BKN230 14/11 Q1020 RMK 1SC012 6SC015 A3014 MAX WIND 21KT
RJAH 222100Z 04014KT 7000 FEW015 BKN020 BKN230 14/11 Q1020
RJAH 222039Z 03014KT 6000 FEW015 BKN020 BKN230 14/11 Q1020 RMK 1SC015 6SC020 A3013 MAX WIND 20KT
RJAH 222000Z 04014KT 5000 BR FEW010 BKN015 BKN230 14/11 Q1019
RJAH 221900Z 04013KT 6000 FEW008 BKN010 14/12 Q1019
RJAH 221800Z 06011KT 5000 BR FEW008 BKN010 14/12 Q1019
RJAH 221700Z 07011KT 5000 BR FEW006 BKN008 14/13 Q1018
RJAH 221600Z 07012KT 4000 BR FEW005 BKN006 15/14 Q1018
RJAH 221521Z 07011KT 4000 BR FEW006 BKN008 15/14 Q1018 RMK 2ST006 5ST008 A3008
RJAH 221500Z 07007KT 5000 BR FEW008 15/13 Q1018
RJAH 221400Z 06007KT 5000 BR FEW008 15/14 Q1018
RJAH 221300Z 06009KT 5000 BR FEW008 16/14 Q1017
RJAH 221233Z 06008KT 7000 FEW010 16/15 Q1017 RMK 1ST010 A3005 VIS NE-E 5KM
RJAH 221200Z 07005KT 9999 FEW010 16/12 Q1017
RJAH 221100Z VRB01KT 9999 FEW010 18/10 Q1016